Time;durP1;ratioP1;P1;durP2;ratioP2;P2;SDS_P1;SDS_P2;PMS_P1;PMS_P2;Temp;Humidity;BMP_temperature;BMP_pressure;BME280_temperature;BME280_humidity;BME280_pressure;Samples;Min_cycle;Max_cycle;Signal;HPM_P1;HPM_P2
2022/07/13 00:01:13;;;;;;;95.05;90.38;;;;;;;19.29;60.43;97455.69;5072353;28;20181;-66
2022/07/13 00:03:38;;;;;;;82.60;78.45;;;;;;;19.13;61.16;97451.44;5071099;28;20213;-65
2022/07/13 00:06:04;;;;;;;62.85;59.58;;;;;;;19.23;61.11;97454.09;5072402;28;20224;-66
2022/07/13 00:08:29;;;;;;;48.25;45.70;;;;;;;19.11;61.68;97451.72;5070890;28;20200;-65
2022/07/13 00:10:55;;;;;;;57.45;54.45;;;;;;;19.07;61.49;97447.97;5072384;28;20587;-65
2022/07/13 00:13:20;;;;;;;120.10;114.10;;;;;;;19.10;61.72;97453.56;5072024;28;20177;-65
2022/07/13 00:15:45;;;;;;;257.77;244.90;;;;;;;19.17;61.53;97445.31;5072458;28;20201;-65
2022/07/13 00:18:11;;;;;;;273.83;259.93;;;;;;;19.18;60.87;97438.94;5072003;28;20181;-66
2022/07/13 00:20:36;;;;;;;288.27;273.60;;;;;;;19.16;60.85;97440.28;5074911;28;20188;-65
2022/07/13 00:23:02;;;;;;;369.67;350.73;;;;;;;19.23;60.87;97443.44;5075944;28;20185;-65
2022/07/13 00:25:27;;;;;;;734.72;691.47;;;;;;;19.14;61.83;97440.53;5075942;28;20185;-65
2022/07/13 00:27:52;;;;;;;770.85;724.50;;;;;;;19.04;62.77;97441.34;5075676;28;20173;-65
2022/07/13 00:30:18;;;;;;;626.77;592.20;;;;;;;18.97;62.60;97443.44;5075960;28;20192;-65
2022/07/13 00:32:43;;;;;;;497.27;471.90;;;;;;;18.97;62.37;97450.63;5075518;28;20185;-65
2022/07/13 00:35:09;;;;;;;76.45;72.60;;;;;;;18.83;63.45;97441.56;5075406;28;20237;-65
2022/07/13 00:37:34;;;;;;;30.10;28.47;;;;;;;18.80;63.72;97436.78;5075521;28;20225;-65
2022/07/13 00:39:59;;;;;;;187.03;177.47;;;;;;;18.99;63.73;97449.31;5075631;28;20177;-65
2022/07/13 00:42:25;;;;;;;163.30;154.80;;;;;;;18.79;64.94;97443.94;5075190;28;20193;-65
2022/07/13 00:44:50;;;;;;;100.27;94.57;;;;;;;18.87;65.55;97451.41;5075304;28;20298;-65
2022/07/13 00:47:17;;;;;;;101.07;95.67;;;;;;;18.72;67.38;97445.25;5075804;28;20547;-65
2022/07/13 00:49:43;;;;;;;149.97;142.17;;;;;;;18.59;69.73;97447.34;5074667;28;20648;-65
2022/07/13 00:52:10;;;;;;;108.33;102.77;;;;;;;18.58;70.14;97442.28;5075333;28;20209;-65
2022/07/13 00:54:36;;;;;;;34.57;32.67;;;;;;;18.43;70.55;97447.53;5074109;28;20233;-66
2022/07/13 00:57:04;;;;;;;25.83;24.40;;;;;;;18.32;70.78;97445.91;5075284;28;20585;-65
2022/07/13 00:59:29;;;;;;;24.63;22.93;;;;;;;18.45;70.28;97442.75;5057081;28;20712;-65
2022/07/13 01:01:54;;;;;;;29.17;27.67;;;;;;;18.45;69.51;97445.41;5075113;28;20189;-65
2022/07/13 01:04:23;;;;;;;32.10;30.37;;;;;;;18.51;67.79;97445.16;5075184;28;20601;-65
2022/07/13 01:06:49;;;;;;;68.33;64.77;;;;;;;18.56;67.54;97447.84;5075171;28;20211;-65
2022/07/13 01:09:15;;;;;;;89.83;85.23;;;;;;;18.59;67.13;97436.72;5074198;28;20193;-65
2022/07/13 01:11:41;;;;;;;37.40;35.50;;;;;;;18.59;67.78;97431.41;5075287;28;20220;-65
2022/07/13 01:14:06;;;;;;;39.83;37.67;;;;;;;18.57;68.74;97435.38;5075221;28;20205;-65
2022/07/13 01:16:32;;;;;;;141.00;133.70;;;;;;;18.46;70.22;97434.53;5074984;28;20185;-65
2022/07/13 01:18:58;;;;;;;83.57;79.17;;;;;;;18.40;70.48;97434.75;5074823;28;20193;-65
2022/07/13 01:21:24;;;;;;;28.53;27.03;;;;;;;18.24;71.40;97434.72;5074856;28;20182;-65
2022/07/13 01:23:49;;;;;;;19.93;18.87;;;;;;;18.07;72.49;97428.00;5056624;28;20189;-65
2022/07/13 01:26:15;;;;;;;26.03;24.53;;;;;;;18.02;72.92;97434.06;5074652;28;20192;-65
2022/07/13 01:28:40;;;;;;;47.00;44.50;;;;;;;18.08;72.47;97422.44;5056851;28;20238;-65
2022/07/13 01:31:05;;;;;;;58.07;54.77;;;;;;;18.19;71.97;97423.28;5074514;28;20178;-65
2022/07/13 01:33:31;;;;;;;53.90;50.80;;;;;;;18.05;72.44;97416.84;5074820;28;20637;-65
2022/07/13 01:35:56;;;;;;;36.90;35.00;;;;;;;17.90;73.45;97422.88;5074077;28;20657;-65
2022/07/13 01:38:23;;;;;;;24.23;23.03;;;;;;;17.86;73.58;97422.59;5074405;28;20228;-65
2022/07/13 01:40:48;;;;;;;18.60;17.53;;;;;;;17.83;74.22;97417.00;5074586;28;20204;-66
2022/07/13 01:43:14;;;;;;;19.93;18.93;;;;;;;17.75;74.52;97422.78;5074173;28;20594;-65
2022/07/13 01:45:40;;;;;;;18.63;17.73;;;;;;;17.80;74.42;97422.81;5073741;28;20185;-65
2022/07/13 01:48:05;;;;;;;22.23;21.13;;;;;;;17.68;75.28;97425.66;5056148;28;20272;-65
2022/07/13 01:50:30;;;;;;;22.13;21.03;;;;;;;17.80;74.77;97420.97;5073709;28;20185;-65
2022/07/13 01:52:56;;;;;;;25.00;23.67;;;;;;;17.96;74.11;97421.84;5073936;28;20602;-65
2022/07/13 01:55:22;;;;;;;34.73;32.93;;;;;;;18.21;73.13;97429.94;5073246;28;20225;-65
2022/07/13 01:57:47;;;;;;;52.40;49.60;;;;;;;18.04;74.18;97417.91;5074250;28;20642;-65
2022/07/13 02:00:20;;;;;;;67.03;63.60;;;;;;;17.90;74.32;97419.41;5073908;28;20192;-65
2022/07/13 02:02:48;;;;;;;65.60;62.17;;;;;;;17.82;74.57;97412.75;5073547;28;20185;-65
2022/07/13 02:05:14;;;;;;;82.40;78.10;;;;;;;17.81;75.24;97417.25;5074211;28;20189;-65
2022/07/13 02:07:40;;;;;;;83.63;79.07;;;;;;;17.78;75.61;97422.25;5072374;28;20212;-65
2022/07/13 02:10:06;;;;;;;81.63;77.23;;;;;;;17.84;75.07;97406.13;5073972;28;20217;-65
2022/07/13 02:12:32;;;;;;;67.47;63.83;;;;;;;17.89;74.72;97408.00;5074091;28;20190;-65
2022/07/13 02:14:57;;;;;;;66.57;62.73;;;;;;;17.89;75.20;97404.59;5073983;28;20255;-65
2022/07/13 02:17:23;;;;;;;70.30;66.63;;;;;;;17.94;74.48;97404.59;5073946;28;20190;-65
2022/07/13 02:19:48;;;;;;;62.27;58.93;;;;;;;17.97;74.45;97401.41;5073052;28;20181;-65
2022/07/13 02:22:14;;;;;;;70.13;66.40;;;;;;;17.90;74.97;97401.66;5055233;28;20193;-66
2022/07/13 02:24:39;;;;;;;79.73;75.07;;;;;;;17.92;74.91;97390.78;5073838;28;20224;-65
2022/07/13 02:27:04;;;;;;;127.10;120.47;;;;;;;17.96;75.21;97387.34;5073316;28;20189;-65
2022/07/13 02:29:30;;;;;;;137.93;130.77;;;;;;;17.67;76.36;97384.28;5073580;28;20189;-65
2022/07/13 02:31:55;;;;;;;121.83;115.40;;;;;;;17.70;75.72;97385.66;5073147;28;20627;-65
2022/07/13 02:34:24;;;;;;;126.20;119.43;;;;;;;17.72;75.23;97376.34;5073297;28;20220;-65
2022/07/13 02:36:49;;;;;;;149.13;141.33;;;;;;;17.53;76.03;97377.81;5055351;28;20575;-66
2022/07/13 02:39:14;;;;;;;144.10;136.63;;;;;;;17.60;76.08;97381.09;5073419;28;20264;-65
2022/07/13 02:41:40;;;;;;;142.70;135.27;;;;;;;17.41;77.20;97377.22;5072442;28;20188;-66
2022/07/13 02:44:05;;;;;;;95.53;90.57;;;;;;;17.46;76.59;97367.44;5072706;28;20182;-65
2022/07/13 02:46:31;;;;;;;90.23;85.43;;;;;;;17.31;77.47;97371.84;5073582;28;20207;-66
2022/07/13 02:48:56;;;;;;;54.87;51.97;;;;;;;17.23;77.59;97365.16;5073094;28;20613;-67
2022/07/13 02:51:21;;;;;;;40.57;38.27;;;;;;;17.16;78.13;97355.84;5072772;28;20192;-65
2022/07/13 02:53:46;;;;;;;33.63;31.87;;;;;;;17.30;77.23;97357.81;5054699;28;20686;-65
2022/07/13 02:56:12;;;;;;;38.47;36.47;;;;;;;17.30;76.67;97367.59;5072130;28;20197;-65
2022/07/13 02:58:37;;;;;;;56.13;53.00;;;;;;;17.27;77.37;97368.94;5072906;28;20634;-65
2022/07/13 03:01:03;;;;;;;35.57;33.33;;;;;;;17.39;76.20;97366.06;5072909;28;20637;-65
2022/07/13 03:03:28;;;;;;;25.17;23.87;;;;;;;17.48;76.00;97364.53;5072631;28;20181;-65
2022/07/13 03:05:56;;;;;;;28.10;26.40;;;;;;;17.31;76.78;97370.00;5073099;28;20178;-65
2022/07/13 03:08:21;;;;;;;25.50;24.20;;;;;;;16.90;78.67;97360.94;5071529;28;20716;-65
2022/07/13 03:10:46;;;;;;;25.13;23.87;;;;;;;16.74;79.28;97355.78;5072892;28;20260;-65
2022/07/13 03:13:12;;;;;;;23.43;22.23;;;;;;;16.79;79.02;97361.09;5072509;28;20246;-65
2022/07/13 03:15:37;;;;;;;33.17;31.50;;;;;;;16.71;79.88;97356.28;5072508;28;20197;-65
2022/07/13 03:18:03;;;;;;;24.73;23.30;;;;;;;16.70;80.05;97366.06;5072887;28;20223;-64
2022/07/13 03:20:28;;;;;;;44.43;42.03;;;;;;;16.95;78.92;97370.78;5072613;28;20188;-65
2022/07/13 03:22:54;;;;;;;88.43;83.90;;;;;;;17.15;77.94;97370.16;5072866;28;20227;-65
2022/07/13 03:25:19;;;;;;;70.87;67.13;;;;;;;16.95;78.50;97360.19;5072206;28;20188;-65
2022/07/13 03:27:45;;;;;;;77.53;73.43;;;;;;;16.86;79.06;97362.50;5072566;28;20224;-66
2022/07/13 03:30:10;;;;;;;39.77;37.67;;;;;;;16.97;78.80;97356.25;5072754;28;20181;-65
2022/07/13 03:32:36;;;;;;;31.40;29.77;;;;;;;16.68;80.21;97351.47;5073001;28;20200;-65
2022/07/13 03:35:01;;;;;;;29.30;27.83;;;;;;;16.68;80.60;97348.81;5072463;28;20279;-65
2022/07/13 03:37:27;;;;;;;33.83;32.03;;;;;;;16.57;80.96;97356.66;5072334;28;20541;-64
2022/07/13 03:39:52;;;;;;;45.10;42.70;;;;;;;16.58;81.48;97360.09;5072367;28;20196;-65
2022/07/13 03:42:18;;;;;;;43.20;40.70;;;;;;;16.54;81.69;97359.81;5072259;28;20185;-65
2022/07/13 03:44:43;;;;;;;39.33;37.23;;;;;;;16.76;80.64;97365.06;5072432;28;20193;-65
2022/07/13 03:47:08;;;;;;;29.30;27.77;;;;;;;16.90;79.82;97360.13;5072718;28;20669;-66
2022/07/13 03:49:34;;;;;;;23.53;22.27;;;;;;;16.93;79.28;97365.75;5072471;28;20201;-65
2022/07/13 03:52:00;;;;;;;20.77;19.63;;;;;;;16.88;80.05;97360.41;5072306;28;20221;-65
2022/07/13 03:54:25;;;;;;;57.00;54.10;;;;;;;17.16;79.14;97361.16;5073504;28;20325;-66
2022/07/13 03:56:51;;;;;;;71.50;67.83;;;;;;;16.94;79.63;97358.59;5076176;28;20185;-65
2022/07/13 03:59:16;;;;;;;107.33;101.93;;;;;;;17.18;78.32;97361.69;5075873;28;20649;-65
2022/07/13 04:01:42;;;;;;;54.30;51.40;;;;;;;17.70;76.12;97351.97;5076382;28;20679;-65
2022/07/13 04:04:08;;;;;;;36.67;34.77;;;;;;;17.70;74.61;97351.19;5075917;28;20555;-65
2022/07/13 04:06:33;;;;;;;61.50;58.33;;;;;;;17.88;73.78;97350.75;5075331;28;20588;-65
2022/07/13 04:08:59;;;;;;;169.95;161.13;;;;;;;18.38;71.85;97346.66;5075989;28;20188;-65
2022/07/13 04:11:25;;;;;;;107.63;102.13;;;;;;;19.26;67.91;97344.59;5075923;28;20640;-65
2022/07/13 04:13:51;;;;;;;190.32;180.65;;;;;;;19.28;66.31;97358.41;5076048;28;20181;-65
2022/07/13 04:16:17;;;;;;;156.63;148.55;;;;;;;19.36;66.05;97350.69;5075637;28;20208;-65
2022/07/13 04:18:42;;;;;;;95.13;90.18;;;;;;;19.57;63.62;97348.81;5058280;28;20186;-66
2022/07/13 04:21:08;;;;;;;97.90;92.63;;;;;;;20.00;62.48;97342.03;5076266;28;20625;-65
2022/07/13 04:23:33;;;;;;;104.40;98.97;;;;;;;20.38;60.64;97343.19;5075952;28;20194;-65
2022/07/13 04:25:59;;;;;;;68.80;65.13;;;;;;;20.48;59.40;97340.47;5075670;28;20185;-65
2022/07/13 04:28:24;;;;;;;86.40;82.05;;;;;;;20.54;59.76;97333.22;5075328;28;20216;-66
2022/07/13 04:30:50;;;;;;;108.78;103.32;;;;;;;20.96;58.14;97336.09;5075642;28;20212;-65
2022/07/13 04:33:15;;;;;;;104.32;99.03;;;;;;;21.02;57.55;97332.31;5075766;28;20274;-65
2022/07/13 04:35:41;;;;;;;139.65;132.60;;;;;;;21.22;56.47;97328.72;5074820;28;20197;-66
2022/07/13 04:38:06;;;;;;;256.42;243.75;;;;;;;21.19;56.98;97320.47;5075444;28;20574;-66
2022/07/13 04:40:32;;;;;;;243.93;231.82;;;;;;;21.31;56.56;97316.38;5075053;28;20200;-66
2022/07/13 04:42:57;;;;;;;252.80;240.45;;;;;;;21.23;57.39;97314.31;5073489;28;20251;-66
2022/07/13 04:45:22;;;;;;;269.95;256.63;;;;;;;21.17;58.03;97317.31;5075464;28;20226;-66
2022/07/13 04:47:49;;;;;;;190.80;181.48;;;;;;;20.81;59.25;97316.78;5075557;28;20224;-65
2022/07/13 04:50:14;;;;;;;193.20;183.70;;;;;;;20.76;60.02;97322.94;5075504;28;20185;-65
2022/07/13 04:52:39;;;;;;;147.75;139.95;;;;;;;20.63;60.25;97329.69;5075285;28;20500;-65
2022/07/13 04:55:06;;;;;;;167.00;158.73;;;;;;;20.85;60.30;97325.81;5074682;28;20284;-66
2022/07/13 04:57:32;;;;;;;157.45;149.57;;;;;;;21.75;57.46;97332.16;5075157;28;20189;-65
2022/07/13 04:59:57;;;;;;;69.72;66.03;;;;;;;21.65;57.94;97321.59;5075222;28;20668;-65
2022/07/13 05:02:22;;;;;;;59.42;56.22;;;;;;;21.96;56.80;97333.53;5074948;28;20189;-66
2022/07/13 05:04:48;;;;;;;65.80;62.30;;;;;;;21.29;58.73;97347.06;5056614;28;20196;-65
2022/07/13 05:07:13;;;;;;;57.72;54.47;;;;;;;20.87;60.91;97344.97;5074468;28;20239;-65
2022/07/13 05:09:39;;;;;;;51.10;48.17;;;;;;;21.41;60.28;97356.25;5074383;28;20185;-65
2022/07/13 05:12:04;;;;;;;57.83;54.67;;;;;;;21.47;59.75;97360.47;5074615;28;20196;-65
2022/07/13 05:14:30;;;;;;;58.53;55.20;;;;;;;22.28;57.54;97350.78;5075034;28;20204;-65
2022/07/13 05:16:55;;;;;;;111.47;105.45;;;;;;;22.18;58.09;97350.91;5074823;28;20192;-65
2022/07/13 05:19:21;;;;;;;131.15;124.68;;;;;;;22.17;57.50;97352.78;5074701;28;20192;-65
2022/07/13 05:21:46;;;;;;;120.15;114.18;;;;;;;22.69;56.05;97343.75;5074596;28;20234;-65
2022/07/13 05:24:11;;;;;;;120.88;114.90;;;;;;;22.56;55.66;97344.50;5074785;28;20575;-65
2022/07/13 05:26:37;;;;;;;250.32;237.93;;;;;;;22.28;56.30;97343.56;5074950;28;20231;-65
2022/07/13 05:29:04;;;;;;;248.50;236.25;;;;;;;22.62;55.65;97348.69;5074034;28;20197;-65
2022/07/13 05:31:30;;;;;;;199.35;189.40;;;;;;;22.47;55.82;97353.44;5056789;28;20264;-65
2022/07/13 05:33:55;;;;;;;262.10;249.27;;;;;;;22.83;54.68;97345.72;5074262;28;20280;-66
2022/07/13 05:36:21;;;;;;;282.95;269.13;;;;;;;23.38;53.52;97349.34;5074591;28;20201;-65
2022/07/13 05:38:46;;;;;;;273.75;260.27;;;;;;;23.93;52.07;97344.88;5073878;28;20256;-65
2022/07/13 05:41:11;;;;;;;222.65;211.63;;;;;;;23.94;50.89;97349.94;5074088;28;20231;-65
2022/07/13 05:43:38;;;;;;;178.98;170.10;;;;;;;23.71;51.34;97342.09;5074348;28;20182;-65
2022/07/13 05:46:04;;;;;;;138.85;131.95;;;;;;;23.09;52.55;97345.03;5074631;28;20201;-65
2022/07/13 05:48:29;;;;;;;108.47;102.90;;;;;;;23.63;51.50;97343.56;5074344;28;20622;-65
2022/07/13 05:50:55;;;;;;;86.70;81.88;;;;;;;23.89;51.29;97333.16;5074491;28;20192;-65
2022/07/13 05:53:20;;;;;;;79.38;74.93;;;;;;;24.71;49.09;97335.69;5074144;28;20212;-64
2022/07/13 05:55:45;;;;;;;58.55;55.58;;;;;;;24.61;49.34;97335.94;5074152;28;20653;-66
2022/07/13 05:58:11;;;;;;;56.63;53.75;;;;;;;24.58;49.58;97331.97;5074552;28;20220;-65
2022/07/13 06:00:36;;;;;;;68.50;64.95;;;;;;;24.21;50.44;97342.97;5074473;28;20223;-66
2022/07/13 06:03:02;;;;;;;71.78;68.15;;;;;;;23.76;50.79;97341.97;5074252;28;20174;-66
2022/07/13 06:05:28;;;;;;;70.82;67.07;;;;;;;23.67;51.27;97349.13;5074105;28;20339;-66
2022/07/13 06:07:55;;;;;;;81.55;77.38;;;;;;;23.46;51.57;97352.16;5074058;28;20193;-67
2022/07/13 06:10:20;;;;;;;94.65;89.90;;;;;;;23.88;50.77;97343.09;5074299;28;20206;-66
2022/07/13 06:12:45;;;;;;;76.78;72.88;;;;;;;24.30;49.71;97339.28;5074647;28;20184;-66
2022/07/13 06:15:11;;;;;;;52.90;50.15;;;;;;;24.48;49.15;97328.72;5073625;28;20251;-65
2022/07/13 06:17:36;;;;;;;51.75;48.85;;;;;;;24.30;49.95;97338.47;5073086;28;20217;-65
2022/07/13 06:20:03;;;;;;;55.05;52.08;;;;;;;23.89;51.16;97333.97;5073987;28;20660;-66
2022/07/13 06:22:28;;;;;;;76.85;73.07;;;;;;;23.52;52.00;97332.25;5074039;28;20573;-66
2022/07/13 06:24:53;;;;;;;67.13;63.70;;;;;;;23.69;50.90;97331.66;5074180;28;20636;-66
2022/07/13 06:27:19;;;;;;;83.68;79.35;;;;;;;23.47;51.85;97329.66;5073991;28;20189;-66
2022/07/13 06:29:44;;;;;;;62.78;59.55;;;;;;;23.50;52.52;97331.78;5074079;28;20181;-66
2022/07/13 06:32:10;;;;;;;79.97;75.95;;;;;;;23.33;53.03;97330.72;5073780;28;20184;-65
2022/07/13 06:34:36;;;;;;;110.53;104.90;;;;;;;23.14;53.67;97336.13;5073409;28;20310;-66
2022/07/13 06:37:01;;;;;;;101.50;96.25;;;;;;;23.13;53.27;97334.53;5055812;28;20271;-66
2022/07/13 06:39:26;;;;;;;74.93;70.97;;;;;;;23.38;50.57;97341.34;5073430;28;20208;-65
2022/07/13 06:41:52;;;;;;;57.25;54.38;;;;;;;22.97;51.74;97342.00;5073490;28;20181;-65
2022/07/13 06:44:17;;;;;;;52.55;49.88;;;;;;;23.84;49.80;97346.66;5073586;28;20606;-65
2022/07/13 06:46:42;;;;;;;39.47;37.50;;;;;;;23.63;48.95;97342.78;5073582;28;20675;-65
2022/07/13 06:49:07;;;;;;;44.35;41.92;;;;;;;23.68;48.96;97342.69;5073398;28;20582;-65
2022/07/13 06:51:33;;;;;;;47.10;44.70;;;;;;;24.00;48.74;97340.69;5073090;28;20181;-66
2022/07/13 06:53:58;;;;;;;41.35;38.90;;;;;;;24.09;48.24;97351.50;5072854;28;20237;-66
2022/07/13 06:56:24;;;;;;;47.22;44.72;;;;;;;23.76;49.48;97352.69;5073263;28;20247;-65
2022/07/13 06:58:49;;;;;;;44.30;41.95;;;;;;;23.72;49.71;97351.72;5073677;28;20193;-66
2022/07/13 07:01:14;;;;;;;46.60;43.97;;;;;;;24.02;49.47;97349.22;5073102;28;20242;-66
2022/07/13 07:03:40;;;;;;;39.60;37.47;;;;;;;24.29;48.11;97348.44;5073167;28;20538;-65
2022/07/13 07:06:05;;;;;;;30.77;29.23;;;;;;;23.81;48.46;97347.25;5072351;28;20220;-65
2022/07/13 07:08:30;;;;;;;30.00;28.30;;;;;;;24.10;48.42;97344.25;5073416;28;20181;-66
2022/07/13 07:10:56;;;;;;;16.48;15.52;;;;;;;24.06;47.85;97349.44;5073189;28;20207;-66
2022/07/13 07:13:22;;;;;;;14.45;13.65;;;;;;;24.35;47.09;97347.22;5072834;28;20217;-66
2022/07/13 07:15:47;;;;;;;28.83;27.27;;;;;;;24.94;45.28;97348.06;5073087;28;20550;-65
2022/07/13 07:18:12;;;;;;;62.03;58.72;;;;;;;25.24;44.61;97346.53;5073170;28;20540;-65
2022/07/13 07:20:38;;;;;;;145.25;138.20;;;;;;;24.91;44.92;97340.59;5073079;28;20185;-66
2022/07/13 07:23:03;;;;;;;179.93;171.02;;;;;;;25.21;44.54;97337.19;5073108;28;20178;-66
2022/07/13 07:25:29;;;;;;;206.68;196.70;;;;;;;25.55;43.79;97333.88;5073140;28;20213;-66
2022/07/13 07:27:55;;;;;;;293.65;278.88;;;;;;;25.85;44.00;97334.19;5073049;28;20304;-64
2022/07/13 07:30:20;;;;;;;391.88;371.15;;;;;;;25.90;43.97;97328.66;5073133;28;20691;-64
2022/07/13 07:32:45;;;;;;;472.58;446.75;;;;;;;26.04;43.60;97332.00;5072989;28;20187;-64
2022/07/13 07:35:11;;;;;;;652.08;612.17;;;;;;;26.01;44.08;97329.97;5072571;28;20228;-64
2022/07/13 07:37:39;;;;;;;542.75;512.00;;;;;;;26.11;44.09;97329.66;5072821;28;20560;-64
2022/07/13 07:40:05;;;;;;;516.33;487.48;;;;;;;26.01;44.82;97327.28;5072938;28;20621;-64
2022/07/13 07:42:31;;;;;;;514.47;485.95;;;;;;;25.85;44.10;97320.75;5072470;28;20181;-64
2022/07/13 07:44:56;;;;;;;585.38;551.25;;;;;;;26.35;43.09;97327.38;5054721;28;20185;-64
2022/07/13 07:47:25;;;;;;;699.75;658.40;;;;;;;26.56;43.32;97315.97;5072421;28;20513;-64
2022/07/13 07:49:53;;;;;;;462.10;435.08;;;;;;;26.68;42.49;97322.31;5072695;28;20174;-64
2022/07/13 07:52:19;;;;;;;561.30;529.28;;;;;;;26.78;42.33;97332.75;5072637;28;20169;-64
2022/07/13 07:54:46;;;;;;;424.13;398.90;;;;;;;26.99;42.66;97326.72;5071750;28;20252;-65
2022/07/13 07:57:11;;;;;;;485.42;458.45;;;;;;;27.48;42.09;97323.44;5072562;28;20181;-64
2022/07/13 07:59:36;;;;;;;552.15;521.22;;;;;;;27.30;40.40;97320.03;5072922;28;20177;-64
2022/07/13 08:02:02;;;;;;;520.03;491.50;;;;;;;27.69;40.07;97324.34;5072316;28;20177;-64
2022/07/13 08:04:27;;;;;;;473.98;448.05;;;;;;;27.52;39.00;97329.03;5072125;28;20209;-64
2022/07/13 08:06:52;;;;;;;422.88;399.95;;;;;;;27.98;38.67;97330.84;5071965;28;20185;-65
2022/07/13 08:09:18;;;;;;;262.85;248.82;;;;;;;28.79;36.78;97335.91;5072304;28;20178;-64
2022/07/13 08:11:43;;;;;;;208.02;196.18;;;;;;;29.18;36.35;97326.47;5072462;28;20359;-64
2022/07/13 08:14:09;;;;;;;161.55;152.85;;;;;;;29.35;36.15;97323.63;5072996;28;20235;-64
2022/07/13 08:16:34;;;;;;;89.22;84.43;;;;;;;29.40;35.31;97325.31;5072553;28;20223;-65
2022/07/13 08:19:00;;;;;;;47.10;44.63;;;;;;;29.44;35.54;97327.00;5072301;28;20192;-65
2022/07/13 08:21:26;;;;;;;34.17;32.22;;;;;;;29.32;35.74;97327.00;5072451;28;20216;-65
2022/07/13 08:23:51;;;;;;;52.03;49.38;;;;;;;29.05;35.03;97327.56;5072324;28;20177;-64
2022/07/13 08:26:27;;;;;;;57.75;54.75;;;;;;;28.91;36.07;97325.97;5054684;28;20189;-65
2022/07/13 08:28:55;;;;;;;123.22;117.03;;;;;;;29.19;35.21;97328.88;5072425;28;20191;-65
2022/07/13 08:31:22;;;;;;;164.48;156.65;;;;;;;29.14;34.77;97322.88;5072756;28;20208;-65
2022/07/13 08:39:17;;;;;;;325.90;309.30;;;;;;;29.22;35.97;97317.38;5072164;28;20181;-65
2022/07/13 08:41:43;;;;;;;314.75;298.85;;;;;;;28.62;37.18;97320.63;5074566;28;20189;-65
2022/07/13 08:44:08;;;;;;;331.75;315.25;;;;;;;28.80;36.05;97314.00;5076082;28;20173;-65
2022/07/13 08:46:34;;;;;;;358.75;340.30;;;;;;;29.08;35.80;97314.19;5076030;28;20276;-66
2022/07/13 08:49:00;;;;;;;353.63;335.17;;;;;;;28.97;36.21;97313.03;5075834;28;20184;-65
2022/07/13 08:51:26;;;;;;;428.83;406.45;;;;;;;29.11;35.18;97310.81;5075954;28;20178;-65
2022/07/13 08:53:52;;;;;;;387.05;367.30;;;;;;;29.02;35.59;97310.13;5075714;28;20304;-65
2022/07/13 08:56:18;;;;;;;357.88;339.60;;;;;;;29.20;34.58;97316.16;5057716;28;20197;-65
2022/07/13 08:58:44;;;;;;;226.48;215.40;;;;;;;29.09;34.05;97313.06;5057895;28;20181;-64
2022/07/13 09:01:10;;;;;;;121.70;115.60;;;;;;;28.99;33.78;97315.38;5075628;28;20196;-65
2022/07/13 09:06:58;;;;;;;119.40;113.55;;;;;;;29.09;34.62;97315.00;5075198;28;20604;-65
2022/07/13 09:09:24;;;;;;;94.32;89.60;;;;;;;29.64;33.71;97309.16;5075674;28;20278;-65
2022/07/13 09:11:50;;;;;;;100.10;95.03;;;;;;;29.46;34.47;97307.78;5057690;28;20200;-65
2022/07/13 09:14:25;;;;;;;83.55;79.22;;;;;;;28.88;34.89;97306.91;5076083;28;20181;-66
2022/07/13 09:16:54;;;;;;;226.93;215.55;;;;;;;28.85;35.41;97307.59;5075801;28;20185;-65
2022/07/13 09:19:25;;;;;;;182.73;173.68;;;;;;;28.65;35.51;97311.84;5075426;28;20190;-66
2022/07/13 09:21:51;;;;;;;282.73;268.80;;;;;;;28.73;35.43;97305.63;5075650;28;20181;-65
2022/07/13 09:24:16;;;;;;;374.77;356.15;;;;;;;28.75;35.25;97310.72;5057540;28;20596;-65
2022/07/13 09:26:44;;;;;;;331.58;315.00;;;;;;;28.80;34.95;97307.81;5057252;28;20217;-65
2022/07/13 09:29:13;;;;;;;464.08;440.50;;;;;;;28.60;35.30;97320.16;5075454;28;20239;-64
2022/07/13 09:31:52;;;;;;;454.48;431.58;;;;;;;28.80;34.68;97308.59;5075312;28;20235;-65
2022/07/13 09:34:40;;;;;;;489.02;464.13;;;;;;;29.09;34.76;97317.69;5075205;28;20193;-65
2022/07/13 09:37:10;;;;;;;395.23;375.55;;;;;;;29.04;33.98;97312.47;5074001;28;20197;-65
2022/07/13 09:40:21;;;;;;;349.33;331.77;;;;;;;29.18;34.00;97313.78;5074524;28;20189;-65
2022/07/13 09:46:08;;;;;;;308.15;292.92;;;;;;;28.74;34.19;97318.00;5051468;28;20193;-66
2022/07/13 09:48:22;;;;;;;375.27;356.88;;;;;;;28.12;35.01;97307.16;5054878;28;20548;-65
2022/07/13 09:50:53;;;;;;;422.90;401.75;;;;;;;28.06;35.36;97314.63;5054796;28;20178;-65
2022/07/13 09:53:43;;;;;;;155.07;147.63;;;;;;;27.95;32.17;97313.44;5054661;28;20170;-66
2022/07/13 09:56:10;;;;;;;91.75;86.82;;;;;;;27.95;33.10;97307.25;5054159;28;20186;-65
2022/07/13 09:58:39;;;;;;;313.13;298.05;;;;;;;27.91;35.17;97311.72;5053292;28;20178;-65
2022/07/13 10:01:06;;;;;;;245.15;233.63;;;;;;;28.00;34.04;97310.56;5053279;28;20223;-65
2022/07/13 10:03:31;;;;;;;111.95;106.50;;;;;;;27.75;33.25;97318.78;5054279;28;20292;-65
2022/07/13 10:05:59;;;;;;;100.05;95.13;;;;;;;27.84;32.76;97325.69;5061639;28;20611;-65
2022/07/13 10:08:24;;;;;;;87.10;82.80;;;;;;;27.61;32.55;97319.78;5074514;28;20553;-65
2022/07/13 10:10:50;;;;;;;72.75;69.03;;;;;;;27.57;31.55;97312.69;5074035;28;20178;-64
2022/07/13 10:13:17;;;;;;;89.88;85.43;;;;;;;27.75;32.67;97318.78;5074348;28;20664;-65
2022/07/13 10:15:43;;;;;;;94.85;90.20;;;;;;;27.84;33.07;97319.53;5075033;28;20199;-65
2022/07/13 10:18:12;;;;;;;79.88;75.88;;;;;;;27.94;32.04;97311.06;5074148;28;20177;-65
2022/07/13 10:20:42;;;;;;;78.97;74.97;;;;;;;28.08;31.99;97314.31;5074425;28;20212;-65
2022/07/13 10:23:08;;;;;;;178.75;170.15;;;;;;;28.03;30.19;97315.28;5074260;28;20181;-65
2022/07/13 10:25:45;;;;;;;252.00;239.60;;;;;;;28.13;29.95;97313.38;5056228;28;20216;-65
2022/07/13 10:28:12;;;;;;;101.85;96.93;;;;;;;28.17;32.00;97304.28;5074572;28;20164;-65
2022/07/13 10:30:38;;;;;;;160.25;152.60;;;;;;;28.10;30.50;97302.09;5074796;28;20238;-65
2022/07/13 10:33:31;;;;;;;204.85;195.10;;;;;;;28.15;30.47;97308.41;5073512;28;20173;-65
2022/07/13 10:35:58;;;;;;;193.27;184.05;;;;;;;28.22;29.61;97300.63;5070236;28;20209;-65
2022/07/13 10:38:28;;;;;;;154.02;146.57;;;;;;;28.01;28.78;97304.06;5073710;28;20277;-65
2022/07/13 10:41:20;;;;;;;115.72;110.22;;;;;;;28.06;29.63;97303.06;5055510;28;20589;-65
2022/07/13 10:44:32;;;;;;;122.32;116.45;;;;;;;28.14;29.08;97296.88;5069853;28;20622;-65
2022/07/13 10:46:58;;;;;;;163.32;155.32;;;;;;;28.11;26.66;97306.38;5073985;28;20227;-65
2022/07/13 10:49:47;;;;;;;299.45;284.90;;;;;;;28.11;26.16;97302.88;5073601;28;20177;-65
2022/07/13 10:52:21;;;;;;;178.43;169.93;;;;;;;27.81;25.08;97294.00;5062957;28;20199;-65
2022/07/13 10:55:11;;;;;;;129.90;123.65;;;;;;;27.58;25.30;97293.50;5073120;28;20370;-65
2022/07/13 10:57:44;;;;;;;352.25;335.08;;;;;;;27.80;27.01;97292.44;5073509;28;20297;-64
2022/07/13 11:00:28;;;;;;;347.27;330.58;;;;;;;27.56;26.74;97289.53;5073695;28;20195;-64
2022/07/13 11:03:07;;;;;;;341.02;324.60;;;;;;;27.52;27.55;97283.22;5073195;28;20241;-64
2022/07/13 11:05:35;;;;;;;403.17;383.35;;;;;;;27.78;27.79;97280.41;5072439;28;20193;-65
2022/07/13 11:08:15;;;;;;;371.05;352.75;;;;;;;28.72;26.75;97277.03;5073371;28;20319;-64
2022/07/13 11:10:41;;;;;;;267.58;254.63;;;;;;;28.29;27.08;97279.31;5073319;28;20166;-64
2022/07/13 11:13:09;;;;;;;320.02;304.38;;;;;;;28.70;27.60;97270.41;5073389;28;20200;-64
2022/07/13 11:15:52;;;;;;;249.35;235.90;;;;;;;29.10;27.53;97268.75;5073485;28;20204;-65
2022/07/13 11:18:29;;;;;;;161.93;154.20;;;;;;;29.33;26.77;97258.34;5073085;28;20298;-64
2022/07/13 11:21:02;;;;;;;51.80;49.28;;;;;;;28.43;26.74;97255.56;5073472;28;20181;-64